sensor_id;sensor_type;location;lat;lon;timestamp;P1;durP1;ratioP1;P2;durP2;ratioP2
37609;SDS011;23457;51.966;8.230;2023-12-28T00:02:13;6.15;;;1.77;;
37609;SDS011;23457;51.966;8.230;2023-12-28T00:04:40;6.15;;;1.70;;
37609;SDS011;23457;51.966;8.230;2023-12-28T00:07:07;4.25;;;1.67;;
37609;SDS011;23457;51.966;8.230;2023-12-28T00:09:33;5.35;;;1.60;;
37609;SDS011;23457;51.966;8.230;2023-12-28T00:12:00;7.93;;;1.83;;
37609;SDS011;23457;51.966;8.230;2023-12-28T00:14:27;5.30;;;1.60;;
37609;SDS011;23457;51.966;8.230;2023-12-28T00:16:53;3.70;;;1.55;;
37609;SDS011;23457;51.966;8.230;2023-12-28T00:19:20;2.78;;;1.48;;
37609;SDS011;23457;51.966;8.230;2023-12-28T00:21:48;3.13;;;1.73;;
37609;SDS011;23457;51.966;8.230;2023-12-28T00:24:16;4.10;;;1.55;;
37609;SDS011;23457;51.966;8.230;2023-12-28T00:26:43;6.57;;;1.95;;
37609;SDS011;23457;51.966;8.230;2023-12-28T00:29:10;6.75;;;1.92;;
37609;SDS011;23457;51.966;8.230;2023-12-28T00:31:37;4.07;;;1.80;;
37609;SDS011;23457;51.966;8.230;2023-12-28T00:34:04;4.28;;;2.03;;
37609;SDS011;23457;51.966;8.230;2023-12-28T00:36:31;3.72;;;1.70;;
37609;SDS011;23457;51.966;8.230;2023-12-28T00:38:58;4.07;;;1.90;;
37609;SDS011;23457;51.966;8.230;2023-12-28T00:41:25;8.68;;;2.00;;
37609;SDS011;23457;51.966;8.230;2023-12-28T00:43:51;3.90;;;1.80;;
37609;SDS011;23457;51.966;8.230;2023-12-28T00:46:20;4.63;;;1.80;;
37609;SDS011;23457;51.966;8.230;2023-12-28T00:48:46;2.00;;;1.40;;
37609;SDS011;23457;51.966;8.230;2023-12-28T00:51:13;3.03;;;1.60;;
37609;SDS011;23457;51.966;8.230;2023-12-28T00:53:40;4.68;;;1.88;;
37609;SDS011;23457;51.966;8.230;2023-12-28T00:56:07;2.65;;;1.75;;
37609;SDS011;23457;51.966;8.230;2023-12-28T00:58:38;5.13;;;2.13;;
37609;SDS011;23457;51.966;8.230;2023-12-28T01:01:05;4.28;;;2.10;;
37609;SDS011;23457;51.966;8.230;2023-12-28T01:03:32;4.15;;;1.70;;
37609;SDS011;23457;51.966;8.230;2023-12-28T01:05:59;4.95;;;1.95;;
37609;SDS011;23457;51.966;8.230;2023-12-28T01:08:26;3.42;;;1.83;;
37609;SDS011;23457;51.966;8.230;2023-12-28T01:10:53;2.85;;;1.88;;
37609;SDS011;23457;51.966;8.230;2023-12-28T01:13:20;5.72;;;1.83;;
37609;SDS011;23457;51.966;8.230;2023-12-28T01:15:47;3.10;;;1.98;;
37609;SDS011;23457;51.966;8.230;2023-12-28T01:18:13;4.13;;;1.92;;
37609;SDS011;23457;51.966;8.230;2023-12-28T01:20:40;4.45;;;1.70;;
37609;SDS011;23457;51.966;8.230;2023-12-28T01:23:08;5.03;;;2.05;;
37609;SDS011;23457;51.966;8.230;2023-12-28T01:25:35;3.83;;;1.95;;
37609;SDS011;23457;51.966;8.230;2023-12-28T01:28:02;4.18;;;1.92;;
37609;SDS011;23457;51.966;8.230;2023-12-28T01:30:29;3.83;;;1.88;;
37609;SDS011;23457;51.966;8.230;2023-12-28T01:32:56;8.95;;;2.15;;
37609;SDS011;23457;51.966;8.230;2023-12-28T01:35:22;3.70;;;1.95;;
37609;SDS011;23457;51.966;8.230;2023-12-28T01:37:49;2.42;;;1.80;;
37609;SDS011;23457;51.966;8.230;2023-12-28T01:40:16;3.85;;;1.95;;
37609;SDS011;23457;51.966;8.230;2023-12-28T01:42:44;8.52;;;1.85;;
37609;SDS011;23457;51.966;8.230;2023-12-28T01:45:12;7.60;;;2.00;;
37609;SDS011;23457;51.966;8.230;2023-12-28T01:50:07;3.38;;;1.70;;
37609;SDS011;23457;51.966;8.230;2023-12-28T01:52:38;4.72;;;2.45;;
37609;SDS011;23457;51.966;8.230;2023-12-28T01:55:05;3.65;;;1.80;;
37609;SDS011;23457;51.966;8.230;2023-12-28T01:57:33;3.17;;;2.10;;
37609;SDS011;23457;51.966;8.230;2023-12-28T02:00:00;3.58;;;1.80;;
37609;SDS011;23457;51.966;8.230;2023-12-28T02:02:38;5.25;;;2.20;;
37609;SDS011;23457;51.966;8.230;2023-12-28T02:05:05;7.85;;;2.17;;
37609;SDS011;23457;51.966;8.230;2023-12-28T02:07:32;3.70;;;2.00;;
37609;SDS011;23457;51.966;8.230;2023-12-28T02:10:02;5.20;;;2.10;;
37609;SDS011;23457;51.966;8.230;2023-12-28T02:12:29;8.27;;;2.65;;
37609;SDS011;23457;51.966;8.230;2023-12-28T02:14:56;4.15;;;1.85;;
37609;SDS011;23457;51.966;8.230;2023-12-28T02:17:24;5.13;;;2.53;;
37609;SDS011;23457;51.966;8.230;2023-12-28T02:19:56;3.63;;;2.03;;
37609;SDS011;23457;51.966;8.230;2023-12-28T02:22:25;3.15;;;1.83;;
37609;SDS011;23457;51.966;8.230;2023-12-28T02:27:27;3.30;;;1.90;;
37609;SDS011;23457;51.966;8.230;2023-12-28T02:29:55;3.10;;;2.00;;
37609;SDS011;23457;51.966;8.230;2023-12-28T02:32:25;6.03;;;2.08;;
37609;SDS011;23457;51.966;8.230;2023-12-28T02:35:06;3.53;;;2.13;;
37609;SDS011;23457;51.966;8.230;2023-12-28T02:37:42;5.32;;;2.15;;
37609;SDS011;23457;51.966;8.230;2023-12-28T02:40:12;4.47;;;2.20;;
37609;SDS011;23457;51.966;8.230;2023-12-28T02:42:42;5.10;;;2.55;;
37609;SDS011;23457;51.966;8.230;2023-12-28T02:45:09;5.32;;;2.13;;
37609;SDS011;23457;51.966;8.230;2023-12-28T02:47:36;7.72;;;2.38;;
37609;SDS011;23457;51.966;8.230;2023-12-28T02:50:03;4.97;;;2.20;;
37609;SDS011;23457;51.966;8.230;2023-12-28T02:52:30;4.72;;;2.05;;
37609;SDS011;23457;51.966;8.230;2023-12-28T02:54:57;3.67;;;2.30;;
37609;SDS011;23457;51.966;8.230;2023-12-28T02:57:24;4.35;;;2.25;;
37609;SDS011;23457;51.966;8.230;2023-12-28T02:59:50;3.13;;;2.22;;
37609;SDS011;23457;51.966;8.230;2023-12-28T03:02:17;6.97;;;2.40;;
37609;SDS011;23457;51.966;8.230;2023-12-28T03:04:45;4.43;;;2.10;;
37609;SDS011;23457;51.966;8.230;2023-12-28T03:07:12;3.83;;;2.40;;
37609;SDS011;23457;51.966;8.230;2023-12-28T03:09:39;3.75;;;2.20;;
37609;SDS011;23457;51.966;8.230;2023-12-28T03:12:06;3.67;;;2.30;;
37609;SDS011;23457;51.966;8.230;2023-12-28T03:14:33;6.18;;;2.10;;
37609;SDS011;23457;51.966;8.230;2023-12-28T03:16:59;5.32;;;2.63;;
37609;SDS011;23457;51.966;8.230;2023-12-28T03:19:28;4.88;;;2.47;;
37609;SDS011;23457;51.966;8.230;2023-12-28T03:21:55;4.85;;;2.45;;
37609;SDS011;23457;51.966;8.230;2023-12-28T03:24:21;4.45;;;2.30;;
37609;SDS011;23457;51.966;8.230;2023-12-28T03:26:48;3.20;;;2.00;;
37609;SDS011;23457;51.966;8.230;2023-12-28T03:29:14;4.90;;;2.55;;
37609;SDS011;23457;51.966;8.230;2023-12-28T03:31:41;3.38;;;2.97;;
37609;SDS011;23457;51.966;8.230;2023-12-28T03:34:08;3.83;;;2.22;;
37609;SDS011;23457;51.966;8.230;2023-12-28T03:36:35;5.25;;;2.17;;
37609;SDS011;23457;51.966;8.230;2023-12-28T03:39:02;6.75;;;2.30;;
37609;SDS011;23457;51.966;8.230;2023-12-28T03:41:29;4.10;;;2.33;;
37609;SDS011;23457;51.966;8.230;2023-12-28T03:43:56;4.10;;;2.38;;
37609;SDS011;23457;51.966;8.230;2023-12-28T03:46:23;3.22;;;2.20;;
37609;SDS011;23457;51.966;8.230;2023-12-28T03:48:50;4.35;;;2.53;;
37609;SDS011;23457;51.966;8.230;2023-12-28T03:51:17;5.38;;;2.55;;
37609;SDS011;23457;51.966;8.230;2023-12-28T03:53:44;3.72;;;2.10;;
37609;SDS011;23457;51.966;8.230;2023-12-28T03:56:24;3.45;;;2.15;;
37609;SDS011;23457;51.966;8.230;2023-12-28T03:58:55;3.92;;;2.30;;
37609;SDS011;23457;51.966;8.230;2023-12-28T04:01:21;5.47;;;1.92;;
37609;SDS011;23457;51.966;8.230;2023-12-28T04:03:49;5.63;;;2.20;;
37609;SDS011;23457;51.966;8.230;2023-12-28T04:06:16;6.85;;;2.72;;
37609;SDS011;23457;51.966;8.230;2023-12-28T04:08:43;5.40;;;2.25;;
37609;SDS011;23457;51.966;8.230;2023-12-28T04:11:09;4.70;;;2.00;;
37609;SDS011;23457;51.966;8.230;2023-12-28T04:13:36;5.18;;;2.45;;
37609;SDS011;23457;51.966;8.230;2023-12-28T04:16:03;5.38;;;2.40;;
37609;SDS011;23457;51.966;8.230;2023-12-28T04:18:31;4.57;;;2.22;;
37609;SDS011;23457;51.966;8.230;2023-12-28T04:20:58;3.47;;;2.20;;
37609;SDS011;23457;51.966;8.230;2023-12-28T04:23:25;5.85;;;2.33;;
37609;SDS011;23457;51.966;8.230;2023-12-28T04:25:51;2.75;;;2.13;;
37609;SDS011;23457;51.966;8.230;2023-12-28T04:28:18;5.85;;;2.13;;
37609;SDS011;23457;51.966;8.230;2023-12-28T04:30:45;3.08;;;2.00;;
37609;SDS011;23457;51.966;8.230;2023-12-28T04:33:12;4.05;;;2.22;;
37609;SDS011;23457;51.966;8.230;2023-12-28T04:35:40;5.20;;;2.35;;
37609;SDS011;23457;51.966;8.230;2023-12-28T04:38:08;7.18;;;2.10;;
37609;SDS011;23457;51.966;8.230;2023-12-28T04:40:35;4.18;;;2.30;;
37609;SDS011;23457;51.966;8.230;2023-12-28T04:43:01;7.50;;;2.25;;
37609;SDS011;23457;51.966;8.230;2023-12-28T04:45:28;3.65;;;1.98;;
37609;SDS011;23457;51.966;8.230;2023-12-28T04:47:56;2.63;;;1.92;;
37609;SDS011;23457;51.966;8.230;2023-12-28T04:50:24;4.47;;;2.00;;
37609;SDS011;23457;51.966;8.230;2023-12-28T04:52:51;6.95;;;2.35;;
37609;SDS011;23457;51.966;8.230;2023-12-28T04:55:17;3.25;;;1.65;;
37609;SDS011;23457;51.966;8.230;2023-12-28T04:57:44;3.15;;;2.05;;
37609;SDS011;23457;51.966;8.230;2023-12-28T05:00:11;5.22;;;2.10;;
37609;SDS011;23457;51.966;8.230;2023-12-28T05:02:39;6.50;;;2.00;;
37609;SDS011;23457;51.966;8.230;2023-12-28T05:05:06;3.83;;;1.95;;
37609;SDS011;23457;51.966;8.230;2023-12-28T05:10:02;4.68;;;1.90;;
37609;SDS011;23457;51.966;8.230;2023-12-28T05:12:30;4.65;;;1.83;;
37609;SDS011;23457;51.966;8.230;2023-12-28T05:15:09;4.75;;;1.95;;
37609;SDS011;23457;51.966;8.230;2023-12-28T05:17:36;6.38;;;2.13;;
37609;SDS011;23457;51.966;8.230;2023-12-28T05:20:03;3.88;;;1.98;;
37609;SDS011;23457;51.966;8.230;2023-12-28T05:22:30;4.70;;;2.30;;
37609;SDS011;23457;51.966;8.230;2023-12-28T05:24:56;5.25;;;1.90;;
37609;SDS011;23457;51.966;8.230;2023-12-28T05:27:23;5.15;;;1.90;;
37609;SDS011;23457;51.966;8.230;2023-12-28T05:29:50;8.02;;;2.20;;
37609;SDS011;23457;51.966;8.230;2023-12-28T05:32:16;3.47;;;2.00;;
37609;SDS011;23457;51.966;8.230;2023-12-28T05:34:43;4.97;;;1.88;;
37609;SDS011;23457;51.966;8.230;2023-12-28T05:37:10;5.03;;;1.75;;
37609;SDS011;23457;51.966;8.230;2023-12-28T05:39:36;4.35;;;1.70;;
37609;SDS011;23457;51.966;8.230;2023-12-28T05:42:03;4.72;;;2.13;;
37609;SDS011;23457;51.966;8.230;2023-12-28T05:44:30;2.33;;;1.50;;
37609;SDS011;23457;51.966;8.230;2023-12-28T05:47:00;5.53;;;2.30;;
37609;SDS011;23457;51.966;8.230;2023-12-28T05:49:27;5.38;;;1.77;;
37609;SDS011;23457;51.966;8.230;2023-12-28T05:51:55;14.88;;;2.38;;
37609;SDS011;23457;51.966;8.230;2023-12-28T05:54:22;3.53;;;1.75;;
37609;SDS011;23457;51.966;8.230;2023-12-28T05:56:49;4.60;;;2.05;;
37609;SDS011;23457;51.966;8.230;2023-12-28T05:59:15;5.15;;;1.65;;
37609;SDS011;23457;51.966;8.230;2023-12-28T06:01:44;5.40;;;1.92;;
37609;SDS011;23457;51.966;8.230;2023-12-28T06:04:11;3.60;;;1.88;;
37609;SDS011;23457;51.966;8.230;2023-12-28T06:06:38;5.32;;;1.75;;
37609;SDS011;23457;51.966;8.230;2023-12-28T06:09:05;7.05;;;1.75;;
37609;SDS011;23457;51.966;8.230;2023-12-28T06:11:32;6.95;;;1.70;;
37609;SDS011;23457;51.966;8.230;2023-12-28T06:13:58;6.85;;;2.13;;
37609;SDS011;23457;51.966;8.230;2023-12-28T06:16:25;3.72;;;1.65;;
37609;SDS011;23457;51.966;8.230;2023-12-28T06:18:52;3.08;;;1.80;;
37609;SDS011;23457;51.966;8.230;2023-12-28T06:21:19;6.10;;;1.90;;
37609;SDS011;23457;51.966;8.230;2023-12-28T06:23:46;3.03;;;1.63;;
37609;SDS011;23457;51.966;8.230;2023-12-28T06:26:12;4.85;;;1.50;;
37609;SDS011;23457;51.966;8.230;2023-12-28T06:28:39;3.65;;;1.60;;
37609;SDS011;23457;51.966;8.230;2023-12-28T06:31:06;5.45;;;1.67;;
37609;SDS011;23457;51.966;8.230;2023-12-28T06:33:32;6.82;;;1.77;;
37609;SDS011;23457;51.966;8.230;2023-12-28T06:36:04;5.00;;;1.77;;
37609;SDS011;23457;51.966;8.230;2023-12-28T06:38:31;3.15;;;1.70;;
37609;SDS011;23457;51.966;8.230;2023-12-28T06:40:59;4.57;;;1.70;;
37609;SDS011;23457;51.966;8.230;2023-12-28T06:43:26;4.88;;;1.90;;
37609;SDS011;23457;51.966;8.230;2023-12-28T06:45:53;4.20;;;2.03;;
37609;SDS011;23457;51.966;8.230;2023-12-28T06:48:19;7.22;;;2.05;;
37609;SDS011;23457;51.966;8.230;2023-12-28T06:50:46;2.63;;;1.67;;
37609;SDS011;23457;51.966;8.230;2023-12-28T06:53:13;4.43;;;1.80;;
37609;SDS011;23457;51.966;8.230;2023-12-28T06:55:40;4.47;;;1.80;;
37609;SDS011;23457;51.966;8.230;2023-12-28T06:58:07;4.55;;;1.60;;
37609;SDS011;23457;51.966;8.230;2023-12-28T07:00:34;2.83;;;1.60;;
37609;SDS011;23457;51.966;8.230;2023-12-28T07:03:01;4.90;;;1.60;;
37609;SDS011;23457;51.966;8.230;2023-12-28T07:05:27;3.90;;;1.67;;
37609;SDS011;23457;51.966;8.230;2023-12-28T07:07:54;3.50;;;1.48;;
37609;SDS011;23457;51.966;8.230;2023-12-28T07:10:21;2.47;;;1.58;;
37609;SDS011;23457;51.966;8.230;2023-12-28T07:12:48;5.45;;;1.55;;
37609;SDS011;23457;51.966;8.230;2023-12-28T07:15:14;8.48;;;3.58;;
37609;SDS011;23457;51.966;8.230;2023-12-28T07:17:41;3.78;;;1.60;;
37609;SDS011;23457;51.966;8.230;2023-12-28T07:20:10;5.10;;;1.80;;
37609;SDS011;23457;51.966;8.230;2023-12-28T07:22:37;5.03;;;2.10;;
37609;SDS011;23457;51.966;8.230;2023-12-28T07:25:05;8.52;;;2.55;;
37609;SDS011;23457;51.966;8.230;2023-12-28T07:27:33;7.07;;;1.85;;
37609;SDS011;23457;51.966;8.230;2023-12-28T07:30:00;4.95;;;1.88;;
37609;SDS011;23457;51.966;8.230;2023-12-28T07:32:28;6.18;;;2.00;;
37609;SDS011;23457;51.966;8.230;2023-12-28T07:34:55;3.60;;;1.77;;
37609;SDS011;23457;51.966;8.230;2023-12-28T07:37:22;5.18;;;2.42;;
37609;SDS011;23457;51.966;8.230;2023-12-28T07:39:49;4.35;;;2.03;;
37609;SDS011;23457;51.966;8.230;2023-12-28T07:42:16;6.40;;;2.60;;
37609;SDS011;23457;51.966;8.230;2023-12-28T07:44:42;9.70;;;2.30;;
37609;SDS011;23457;51.966;8.230;2023-12-28T07:47:09;7.53;;;2.33;;
37609;SDS011;23457;51.966;8.230;2023-12-28T07:49:41;6.15;;;2.03;;
37609;SDS011;23457;51.966;8.230;2023-12-28T07:52:08;7.72;;;2.42;;
37609;SDS011;23457;51.966;8.230;2023-12-28T07:54:36;5.15;;;1.90;;
37609;SDS011;23457;51.966;8.230;2023-12-28T07:57:04;5.13;;;2.08;;
37609;SDS011;23457;51.966;8.230;2023-12-28T07:59:31;5.03;;;1.65;;
37609;SDS011;23457;51.966;8.230;2023-12-28T08:01:57;11.77;;;2.53;;
37609;SDS011;23457;51.966;8.230;2023-12-28T08:04:26;6.93;;;2.25;;
37609;SDS011;23457;51.966;8.230;2023-12-28T08:06:59;6.85;;;2.25;;
37609;SDS011;23457;51.966;8.230;2023-12-28T08:09:26;4.43;;;2.30;;
37609;SDS011;23457;51.966;8.230;2023-12-28T08:11:53;7.40;;;2.30;;
37609;SDS011;23457;51.966;8.230;2023-12-28T08:14:20;6.00;;;2.05;;
37609;SDS011;23457;51.966;8.230;2023-12-28T08:16:46;2.80;;;1.55;;
37609;SDS011;23457;51.966;8.230;2023-12-28T08:19:14;4.82;;;2.00;;
37609;SDS011;23457;51.966;8.230;2023-12-28T08:21:40;8.50;;;2.28;;
37609;SDS011;23457;51.966;8.230;2023-12-28T08:24:07;5.97;;;1.83;;
37609;SDS011;23457;51.966;8.230;2023-12-28T08:26:34;9.43;;;2.38;;
37609;SDS011;23457;51.966;8.230;2023-12-28T08:29:01;5.20;;;1.90;;
37609;SDS011;23457;51.966;8.230;2023-12-28T08:31:28;8.77;;;2.00;;
37609;SDS011;23457;51.966;8.230;2023-12-28T08:33:57;7.30;;;2.20;;
37609;SDS011;23457;51.966;8.230;2023-12-28T08:36:24;6.53;;;2.00;;
37609;SDS011;23457;51.966;8.230;2023-12-28T08:38:50;6.53;;;2.00;;
37609;SDS011;23457;51.966;8.230;2023-12-28T08:41:18;5.13;;;1.90;;
37609;SDS011;23457;51.966;8.230;2023-12-28T08:43:46;5.47;;;1.80;;
37609;SDS011;23457;51.966;8.230;2023-12-28T08:46:14;9.48;;;2.00;;
37609;SDS011;23457;51.966;8.230;2023-12-28T08:48:42;5.15;;;1.98;;
37609;SDS011;23457;51.966;8.230;2023-12-28T08:51:10;7.40;;;2.00;;
37609;SDS011;23457;51.966;8.230;2023-12-28T08:53:37;5.15;;;1.85;;
37609;SDS011;23457;51.966;8.230;2023-12-28T08:56:19;7.45;;;2.13;;
37609;SDS011;23457;51.966;8.230;2023-12-28T08:58:47;7.60;;;2.00;;
37609;SDS011;23457;51.966;8.230;2023-12-28T09:01:18;6.10;;;1.70;;
37609;SDS011;23457;51.966;8.230;2023-12-28T09:03:53;5.75;;;2.15;;
37609;SDS011;23457;51.966;8.230;2023-12-28T09:06:21;7.68;;;2.17;;
37609;SDS011;23457;51.966;8.230;2023-12-28T09:08:49;7.47;;;1.67;;
37609;SDS011;23457;51.966;8.230;2023-12-28T09:11:19;5.03;;;1.90;;
37609;SDS011;23457;51.966;8.230;2023-12-28T09:13:46;3.30;;;1.60;;
37609;SDS011;23457;51.966;8.230;2023-12-28T09:16:14;11.73;;;2.05;;
37609;SDS011;23457;51.966;8.230;2023-12-28T09:18:43;8.13;;;1.83;;
37609;SDS011;23457;51.966;8.230;2023-12-28T09:21:10;8.85;;;2.03;;
37609;SDS011;23457;51.966;8.230;2023-12-28T09:23:37;8.75;;;1.90;;
37609;SDS011;23457;51.966;8.230;2023-12-28T09:26:05;8.38;;;2.13;;
37609;SDS011;23457;51.966;8.230;2023-12-28T09:28:33;7.18;;;2.20;;
37609;SDS011;23457;51.966;8.230;2023-12-28T09:31:01;9.98;;;2.28;;
37609;SDS011;23457;51.966;8.230;2023-12-28T09:33:30;6.97;;;1.95;;
37609;SDS011;23457;51.966;8.230;2023-12-28T09:35:59;5.20;;;1.92;;
37609;SDS011;23457;51.966;8.230;2023-12-28T09:38:27;9.77;;;1.95;;
37609;SDS011;23457;51.966;8.230;2023-12-28T09:40:54;8.30;;;1.88;;
37609;SDS011;23457;51.966;8.230;2023-12-28T09:43:26;6.82;;;1.90;;
37609;SDS011;23457;51.966;8.230;2023-12-28T09:46:07;7.40;;;2.03;;
37609;SDS011;23457;51.966;8.230;2023-12-28T09:48:37;8.10;;;1.60;;
37609;SDS011;23457;51.966;8.230;2023-12-28T09:51:07;8.23;;;2.05;;
37609;SDS011;23457;51.966;8.230;2023-12-28T09:53:42;10.52;;;2.13;;
37609;SDS011;23457;51.966;8.230;2023-12-28T09:56:10;11.30;;;2.17;;
37609;SDS011;23457;51.966;8.230;2023-12-28T09:58:40;9.50;;;1.80;;
37609;SDS011;23457;51.966;8.230;2023-12-28T10:01:09;8.70;;;1.92;;
37609;SDS011;23457;51.966;8.230;2023-12-28T10:03:37;7.47;;;1.70;;
37609;SDS011;23457;51.966;8.230;2023-12-28T10:06:04;9.32;;;2.03;;
37609;SDS011;23457;51.966;8.230;2023-12-28T10:08:32;11.02;;;2.47;;
37609;SDS011;23457;51.966;8.230;2023-12-28T10:11:02;9.07;;;1.92;;
37609;SDS011;23457;51.966;8.230;2023-12-28T10:13:32;7.50;;;1.60;;
37609;SDS011;23457;51.966;8.230;2023-12-28T10:15:59;9.55;;;2.05;;
37609;SDS011;23457;51.966;8.230;2023-12-28T10:18:27;7.80;;;1.90;;
37609;SDS011;23457;51.966;8.230;2023-12-28T10:20:54;8.80;;;2.17;;
37609;SDS011;23457;51.966;8.230;2023-12-28T10:23:21;7.22;;;1.95;;
37609;SDS011;23457;51.966;8.230;2023-12-28T10:25:48;8.38;;;1.77;;
37609;SDS011;23457;51.966;8.230;2023-12-28T10:28:19;9.82;;;2.28;;
37609;SDS011;23457;51.966;8.230;2023-12-28T10:30:46;10.85;;;1.60;;
37609;SDS011;23457;51.966;8.230;2023-12-28T10:33:14;9.20;;;1.92;;
37609;SDS011;23457;51.966;8.230;2023-12-28T10:35:42;14.43;;;2.17;;
37609;SDS011;23457;51.966;8.230;2023-12-28T10:38:13;7.28;;;1.80;;
37609;SDS011;23457;51.966;8.230;2023-12-28T10:40:44;11.30;;;2.20;;
37609;SDS011;23457;51.966;8.230;2023-12-28T10:43:14;9.63;;;2.22;;
37609;SDS011;23457;51.966;8.230;2023-12-28T10:45:46;11.30;;;1.92;;
37609;SDS011;23457;51.966;8.230;2023-12-28T10:48:13;11.30;;;2.42;;
37609;SDS011;23457;51.966;8.230;2023-12-28T10:50:42;10.60;;;1.95;;
37609;SDS011;23457;51.966;8.230;2023-12-28T10:58:58;11.60;;;2.45;;
37609;SDS011;23457;51.966;8.230;2023-12-28T11:01:32;14.35;;;2.35;;
37609;SDS011;23457;51.966;8.230;2023-12-28T11:04:07;9.25;;;2.20;;
37609;SDS011;23457;51.966;8.230;2023-12-28T11:06:41;14.38;;;2.53;;
37609;SDS011;23457;51.966;8.230;2023-12-28T11:09:10;10.70;;;2.33;;
37609;SDS011;23457;51.966;8.230;2023-12-28T11:11:37;11.32;;;2.63;;
37609;SDS011;23457;51.966;8.230;2023-12-28T11:14:05;10.75;;;2.00;;
37609;SDS011;23457;51.966;8.230;2023-12-28T11:16:32;10.65;;;2.35;;
37609;SDS011;23457;51.966;8.230;2023-12-28T11:19:00;18.60;;;2.85;;
37609;SDS011;23457;51.966;8.230;2023-12-28T11:21:28;11.30;;;2.42;;
37609;SDS011;23457;51.966;8.230;2023-12-28T11:23:56;11.77;;;2.55;;
37609;SDS011;23457;51.966;8.230;2023-12-28T11:26:23;9.35;;;2.20;;
37609;SDS011;23457;51.966;8.230;2023-12-28T11:28:51;10.88;;;1.92;;
37609;SDS011;23457;51.966;8.230;2023-12-28T11:31:27;12.85;;;2.00;;
37609;SDS011;23457;51.966;8.230;2023-12-28T11:33:54;14.48;;;3.25;;
37609;SDS011;23457;51.966;8.230;2023-12-28T11:39:09;13.93;;;2.47;;
37609;SDS011;23457;51.966;8.230;2023-12-28T11:41:36;14.13;;;2.65;;
37609;SDS011;23457;51.966;8.230;2023-12-28T11:44:03;13.23;;;2.25;;
37609;SDS011;23457;51.966;8.230;2023-12-28T11:46:34;15.45;;;2.72;;
37609;SDS011;23457;51.966;8.230;2023-12-28T11:49:03;14.05;;;2.47;;
37609;SDS011;23457;51.966;8.230;2023-12-28T11:51:31;12.38;;;2.38;;
37609;SDS011;23457;51.966;8.230;2023-12-28T11:53:59;11.60;;;2.25;;
37609;SDS011;23457;51.966;8.230;2023-12-28T11:56:27;16.70;;;3.15;;
37609;SDS011;23457;51.966;8.230;2023-12-28T11:58:54;7.95;;;1.73;;
37609;SDS011;23457;51.966;8.230;2023-12-28T12:01:21;13.00;;;3.17;;
37609;SDS011;23457;51.966;8.230;2023-12-28T12:03:47;8.52;;;2.08;;
37609;SDS011;23457;51.966;8.230;2023-12-28T12:06:15;14.30;;;1.88;;
37609;SDS011;23457;51.966;8.230;2023-12-28T12:08:46;16.13;;;2.15;;
37609;SDS011;23457;51.966;8.230;2023-12-28T12:11:13;13.35;;;2.25;;
37609;SDS011;23457;51.966;8.230;2023-12-28T12:13:40;14.95;;;1.90;;
37609;SDS011;23457;51.966;8.230;2023-12-28T12:16:07;13.40;;;2.20;;
37609;SDS011;23457;51.966;8.230;2023-12-28T12:18:35;10.18;;;2.03;;
37609;SDS011;23457;51.966;8.230;2023-12-28T12:21:04;15.48;;;2.38;;
37609;SDS011;23457;51.966;8.230;2023-12-28T12:23:35;15.70;;;2.42;;
37609;SDS011;23457;51.966;8.230;2023-12-28T12:26:07;13.97;;;2.13;;
37609;SDS011;23457;51.966;8.230;2023-12-28T12:28:34;6.45;;;1.92;;
37609;SDS011;23457;51.966;8.230;2023-12-28T12:31:02;12.45;;;2.38;;
37609;SDS011;23457;51.966;8.230;2023-12-28T12:33:29;12.75;;;2.13;;
37609;SDS011;23457;51.966;8.230;2023-12-28T12:36:00;15.18;;;2.45;;
37609;SDS011;23457;51.966;8.230;2023-12-28T12:38:28;10.52;;;2.03;;
37609;SDS011;23457;51.966;8.230;2023-12-28T12:40:56;8.70;;;1.70;;
37609;SDS011;23457;51.966;8.230;2023-12-28T12:43:22;10.95;;;2.42;;
37609;SDS011;23457;51.966;8.230;2023-12-28T12:45:49;16.27;;;2.28;;
37609;SDS011;23457;51.966;8.230;2023-12-28T12:48:16;7.65;;;1.90;;
37609;SDS011;23457;51.966;8.230;2023-12-28T12:50:43;7.75;;;1.73;;
37609;SDS011;23457;51.966;8.230;2023-12-28T12:53:12;10.52;;;1.83;;
37609;SDS011;23457;51.966;8.230;2023-12-28T12:55:39;10.63;;;2.00;;
37609;SDS011;23457;51.966;8.230;2023-12-28T12:58:09;14.55;;;2.10;;
37609;SDS011;23457;51.966;8.230;2023-12-28T13:00:36;7.88;;;1.90;;
37609;SDS011;23457;51.966;8.230;2023-12-28T13:03:07;8.63;;;1.73;;
37609;SDS011;23457;51.966;8.230;2023-12-28T13:05:35;7.57;;;1.80;;
37609;SDS011;23457;51.966;8.230;2023-12-28T13:08:02;15.18;;;2.58;;
37609;SDS011;23457;51.966;8.230;2023-12-28T13:10:31;15.50;;;2.13;;
37609;SDS011;23457;51.966;8.230;2023-12-28T13:12:57;9.05;;;1.90;;
37609;SDS011;23457;51.966;8.230;2023-12-28T13:15:25;9.70;;;1.92;;
37609;SDS011;23457;51.966;8.230;2023-12-28T13:17:52;14.00;;;2.03;;
37609;SDS011;23457;51.966;8.230;2023-12-28T13:20:21;8.82;;;1.95;;
37609;SDS011;23457;51.966;8.230;2023-12-28T13:22:48;6.18;;;1.85;;
37609;SDS011;23457;51.966;8.230;2023-12-28T13:25:15;6.50;;;1.90;;
37609;SDS011;23457;51.966;8.230;2023-12-28T13:27:42;8.27;;;1.50;;
37609;SDS011;23457;51.966;8.230;2023-12-28T13:30:10;13.50;;;2.40;;
37609;SDS011;23457;51.966;8.230;2023-12-28T13:32:38;11.68;;;1.85;;
37609;SDS011;23457;51.966;8.230;2023-12-28T13:35:05;11.90;;;2.15;;
37609;SDS011;23457;51.966;8.230;2023-12-28T13:37:33;10.02;;;1.98;;
37609;SDS011;23457;51.966;8.230;2023-12-28T13:39:59;13.27;;;2.15;;
37609;SDS011;23457;51.966;8.230;2023-12-28T13:42:26;11.82;;;2.40;;
37609;SDS011;23457;51.966;8.230;2023-12-28T13:44:53;12.25;;;2.25;;
37609;SDS011;23457;51.966;8.230;2023-12-28T13:47:20;10.27;;;2.03;;
37609;SDS011;23457;51.966;8.230;2023-12-28T13:49:46;14.45;;;2.67;;
37609;SDS011;23457;51.966;8.230;2023-12-28T13:52:14;10.90;;;1.88;;
37609;SDS011;23457;51.966;8.230;2023-12-28T13:54:41;10.80;;;1.80;;
37609;SDS011;23457;51.966;8.230;2023-12-28T13:57:08;10.77;;;1.90;;
37609;SDS011;23457;51.966;8.230;2023-12-28T13:59:35;11.18;;;2.13;;
37609;SDS011;23457;51.966;8.230;2023-12-28T14:02:01;11.30;;;2.10;;
37609;SDS011;23457;51.966;8.230;2023-12-28T14:04:29;11.48;;;2.15;;
37609;SDS011;23457;51.966;8.230;2023-12-28T14:06:56;10.32;;;2.05;;
37609;SDS011;23457;51.966;8.230;2023-12-28T14:09:23;9.68;;;2.40;;
37609;SDS011;23457;51.966;8.230;2023-12-28T14:11:50;12.45;;;2.08;;
37609;SDS011;23457;51.966;8.230;2023-12-28T14:14:17;14.60;;;2.08;;
37609;SDS011;23457;51.966;8.230;2023-12-28T14:16:43;15.90;;;2.30;;
37609;SDS011;23457;51.966;8.230;2023-12-28T14:19:12;11.43;;;2.33;;
37609;SDS011;23457;51.966;8.230;2023-12-28T14:21:39;14.20;;;2.05;;
37609;SDS011;23457;51.966;8.230;2023-12-28T14:24:06;7.90;;;1.67;;
37609;SDS011;23457;51.966;8.230;2023-12-28T14:26:33;15.35;;;2.45;;
37609;SDS011;23457;51.966;8.230;2023-12-28T14:29:01;9.75;;;1.70;;
37609;SDS011;23457;51.966;8.230;2023-12-28T14:31:33;12.00;;;1.70;;
37609;SDS011;23457;51.966;8.230;2023-12-28T14:34:00;9.88;;;1.75;;
37609;SDS011;23457;51.966;8.230;2023-12-28T14:38:59;12.02;;;1.88;;
37609;SDS011;23457;51.966;8.230;2023-12-28T14:41:31;12.02;;;2.20;;
37609;SDS011;23457;51.966;8.230;2023-12-28T14:44:03;11.63;;;1.77;;
37609;SDS011;23457;51.966;8.230;2023-12-28T14:46:31;8.52;;;1.42;;
37609;SDS011;23457;51.966;8.230;2023-12-28T14:48:57;17.85;;;2.70;;
37609;SDS011;23457;51.966;8.230;2023-12-28T14:51:24;11.27;;;1.80;;
37609;SDS011;23457;51.966;8.230;2023-12-28T14:53:51;14.77;;;2.60;;
37609;SDS011;23457;51.966;8.230;2023-12-28T14:56:17;13.60;;;2.40;;
37609;SDS011;23457;51.966;8.230;2023-12-28T14:58:45;11.45;;;2.08;;
37609;SDS011;23457;51.966;8.230;2023-12-28T15:01:13;11.77;;;2.22;;
37609;SDS011;23457;51.966;8.230;2023-12-28T15:03:42;11.00;;;1.75;;
37609;SDS011;23457;51.966;8.230;2023-12-28T15:06:09;15.25;;;1.85;;
37609;SDS011;23457;51.966;8.230;2023-12-28T15:08:36;7.65;;;1.77;;